sensor_id;sensor_type;location;lat;lon;timestamp;pressure;altitude;pressure_sealevel;temperature
77355;BMP280;66422;51.202;19.936;2024-03-17T00:06:19;99462.34;;;7.36
77355;BMP280;66422;51.202;19.936;2024-03-17T00:21:38;99480.50;;;7.13
77355;BMP280;66422;51.202;19.936;2024-03-17T00:36:59;99478.21;;;7.15
77355;BMP280;66422;51.202;19.936;2024-03-17T00:52:19;99486.77;;;7.18
77355;BMP280;66422;51.202;19.936;2024-03-17T01:07:39;99498.65;;;7.24
77355;BMP280;66422;51.202;19.936;2024-03-17T01:22:58;99495.82;;;7.32
77355;BMP280;66422;51.202;19.936;2024-03-17T01:38:18;99503.88;;;7.06
77355;BMP280;66422;51.202;19.936;2024-03-17T01:53:39;99517.18;;;6.82
77355;BMP280;66422;51.202;19.936;2024-03-17T02:08:59;99522.78;;;6.78
77355;BMP280;66422;51.202;19.936;2024-03-17T02:24:19;99527.55;;;6.77
77355;BMP280;66422;51.202;19.936;2024-03-17T02:39:39;99535.83;;;6.54
77355;BMP280;66422;51.202;19.936;2024-03-17T02:54:59;99544.81;;;6.31
77355;BMP280;66422;51.202;19.936;2024-03-17T03:10:19;99545.35;;;5.96
77355;BMP280;66422;51.202;19.936;2024-03-17T03:25:39;99559.14;;;5.58
77355;BMP280;66422;51.202;19.936;2024-03-17T03:41:06;99556.81;;;5.33
77355;BMP280;66422;51.202;19.936;2024-03-17T03:56:25;99556.60;;;5.18
77355;BMP280;66422;51.202;19.936;2024-03-17T04:11:45;99564.49;;;4.93
77355;BMP280;66422;51.202;19.936;2024-03-17T04:27:05;99572.35;;;4.81
77355;BMP280;66422;51.202;19.936;2024-03-17T04:42:25;99585.65;;;4.68
77355;BMP280;66422;51.202;19.936;2024-03-17T04:57:45;99582.20;;;4.64
77355;BMP280;66422;51.202;19.936;2024-03-17T05:13:05;99590.80;;;4.58
77355;BMP280;66422;51.202;19.936;2024-03-17T05:28:25;99608.53;;;4.62
77355;BMP280;66422;51.202;19.936;2024-03-17T05:43:45;99626.54;;;4.64
77355;BMP280;66422;51.202;19.936;2024-03-17T05:59:08;99648.86;;;5.08
77355;BMP280;66422;51.202;19.936;2024-03-17T06:14:28;99661.86;;;5.46
77355;BMP280;66422;51.202;19.936;2024-03-17T06:29:47;99676.92;;;5.52
77355;BMP280;66422;51.202;19.936;2024-03-17T06:45:08;99686.77;;;6.04
77355;BMP280;66422;51.202;19.936;2024-03-17T07:00:28;99690.29;;;6.07
77355;BMP280;66422;51.202;19.936;2024-03-17T07:15:48;99690.88;;;6.39
77355;BMP280;66422;51.202;19.936;2024-03-17T07:31:10;99702.30;;;6.11
77355;BMP280;66422;51.202;19.936;2024-03-17T07:46:31;99694.16;;;6.53
77355;BMP280;66422;51.202;19.936;2024-03-17T08:01:50;99689.99;;;6.82
77355;BMP280;66422;51.202;19.936;2024-03-17T08:17:10;99688.19;;;7.20
77355;BMP280;66422;51.202;19.936;2024-03-17T08:32:30;99692.95;;;7.87
77355;BMP280;66422;51.202;19.936;2024-03-17T08:47:52;99689.87;;;8.01
77355;BMP280;66422;51.202;19.936;2024-03-17T09:03:12;99695.27;;;7.98
77355;BMP280;66422;51.202;19.936;2024-03-17T09:18:33;99699.38;;;8.33
77355;BMP280;66422;51.202;19.936;2024-03-17T09:33:54;99692.73;;;8.83
77355;BMP280;66422;51.202;19.936;2024-03-17T09:49:15;99695.71;;;8.18
77355;BMP280;66422;51.202;19.936;2024-03-17T10:04:38;99699.42;;;8.26
77355;BMP280;66422;51.202;19.936;2024-03-17T10:20:18;99705.91;;;8.09
77355;BMP280;66422;51.202;19.936;2024-03-17T10:35:38;99703.70;;;7.73
77355;BMP280;66422;51.202;19.936;2024-03-17T10:50:59;99704.12;;;7.93
77355;BMP280;66422;51.202;19.936;2024-03-17T11:06:21;99704.02;;;7.89
77355;BMP280;66422;51.202;19.936;2024-03-17T11:21:40;99709.23;;;7.49
77355;BMP280;66422;51.202;19.936;2024-03-17T11:52:22;99682.23;;;9.01
77355;BMP280;66422;51.202;19.936;2024-03-17T12:07:43;99668.23;;;8.39
77355;BMP280;66422;51.202;19.936;2024-03-17T12:23:03;99654.59;;;7.97
77355;BMP280;66422;51.202;19.936;2024-03-17T12:38:22;99659.98;;;7.85
77355;BMP280;66422;51.202;19.936;2024-03-17T12:53:42;99649.13;;;7.73
77355;BMP280;66422;51.202;19.936;2024-03-17T13:09:02;99649.90;;;7.49
77355;BMP280;66422;51.202;19.936;2024-03-17T13:24:21;99647.87;;;7.22
77355;BMP280;66422;51.202;19.936;2024-03-17T13:39:41;99650.51;;;7.34
77355;BMP280;66422;51.202;19.936;2024-03-17T13:55:01;99651.73;;;7.07
77355;BMP280;66422;51.202;19.936;2024-03-17T14:10:23;99652.34;;;7.19
77355;BMP280;66422;51.202;19.936;2024-03-17T14:25:43;99642.71;;;7.06
77355;BMP280;66422;51.202;19.936;2024-03-17T14:41:02;99649.65;;;6.39
77355;BMP280;66422;51.202;19.936;2024-03-17T14:56:24;99649.90;;;6.38
77355;BMP280;66422;51.202;19.936;2024-03-17T15:11:45;99650.11;;;6.21
77355;BMP280;66422;51.202;19.936;2024-03-17T15:27:08;99655.52;;;6.23
77355;BMP280;66422;51.202;19.936;2024-03-17T15:42:29;99664.27;;;6.38
77355;BMP280;66422;51.202;19.936;2024-03-17T15:57:49;99664.50;;;6.30
77355;BMP280;66422;51.202;19.936;2024-03-17T16:13:08;99661.95;;;6.14
77355;BMP280;66422;51.202;19.936;2024-03-17T16:28:28;99668.33;;;6.03
77355;BMP280;66422;51.202;19.936;2024-03-17T16:43:55;99672.15;;;6.36
77355;BMP280;66422;51.202;19.936;2024-03-17T16:59:16;99695.61;;;5.99
77355;BMP280;66422;51.202;19.936;2024-03-17T17:14:36;99684.49;;;5.76
77355;BMP280;66422;51.202;19.936;2024-03-17T17:30:08;99702.06;;;5.65
77355;BMP280;66422;51.202;19.936;2024-03-17T17:45:28;99719.44;;;5.25
77355;BMP280;66422;51.202;19.936;2024-03-17T18:00:48;99726.64;;;4.75
77355;BMP280;66422;51.202;19.936;2024-03-17T18:16:15;99720.90;;;4.62
77355;BMP280;66422;51.202;19.936;2024-03-17T18:31:35;99726.50;;;4.58
77355;BMP280;66422;51.202;19.936;2024-03-17T18:46:54;99722.63;;;4.14
77355;BMP280;66422;51.202;19.936;2024-03-17T19:02:14;99734.13;;;3.83
77355;BMP280;66422;51.202;19.936;2024-03-17T19:17:33;99740.59;;;2.92
77355;BMP280;66422;51.202;19.936;2024-03-17T19:32:55;99729.02;;;2.97
77355;BMP280;66422;51.202;19.936;2024-03-17T19:48:14;99723.73;;;3.35
77355;BMP280;66422;51.202;19.936;2024-03-17T20:03:36;99728.69;;;3.51
77355;BMP280;66422;51.202;19.936;2024-03-17T20:18:56;99723.96;;;3.56
77355;BMP280;66422;51.202;19.936;2024-03-17T20:34:15;99709.45;;;3.49
77355;BMP280;66422;51.202;19.936;2024-03-17T20:49:35;99718.19;;;3.71
77355;BMP280;66422;51.202;19.936;2024-03-17T21:04:55;99710.89;;;3.25
77355;BMP280;66422;51.202;19.936;2024-03-17T21:20:15;99704.89;;;2.95
77355;BMP280;66422;51.202;19.936;2024-03-17T21:35:37;99707.61;;;2.43
77355;BMP280;66422;51.202;19.936;2024-03-17T21:50:57;99690.09;;;2.29
77355;BMP280;66422;51.202;19.936;2024-03-17T22:06:16;99676.52;;;2.50
77355;BMP280;66422;51.202;19.936;2024-03-17T22:21:36;99667.77;;;2.17
77355;BMP280;66422;51.202;19.936;2024-03-17T22:36:55;99662.85;;;2.44
77355;BMP280;66422;51.202;19.936;2024-03-17T22:52:15;99643.08;;;2.45
77355;BMP280;66422;51.202;19.936;2024-03-17T23:07:36;99645.27;;;2.13
77355;BMP280;66422;51.202;19.936;2024-03-17T23:22:55;99650.48;;;2.02
77355;BMP280;66422;51.202;19.936;2024-03-17T23:38:15;99644.55;;;2.07
77355;BMP280;66422;51.202;19.936;2024-03-17T23:53:35;99630.59;;;1.98
